Time;durP1;ratioP1;P1;durP2;ratioP2;P2;SDS_P1;SDS_P2;PMS_P1;PMS_P2;Temp;Humidity;BMP_temperature;BMP_pressure;BME280_temperature;BME280_humidity;BME280_pressure;Samples;Min_cycle;Max_cycle;Signal;HPM_P1;HPM_P2
2023/05/16 16:47:42;;;;;;;9.13;2.63;;;12.00;99.90;;;;;;6205811;23;20082;-77
2023/05/16 16:50:09;;;;;;;6.85;3.10;;;12.10;99.90;;;;;;6214202;23;20020;-77
2023/05/16 16:52:35;;;;;;;7.63;2.95;;;12.10;99.90;;;;;;6214914;23;20087;-77
2023/05/16 16:55:01;;;;;;;8.32;4.28;;;12.10;99.90;;;;;;6214216;23;20122;-77
2023/05/16 16:57:26;;;;;;;4.53;2.72;;;12.20;99.90;;;;;;6211999;23;20445;-78
2023/05/16 16:59:52;;;;;;;9.73;3.28;;;12.30;99.90;;;;;;6209890;23;20389;-78
2023/05/16 17:02:18;;;;;;;7.10;2.80;;;12.40;99.90;;;;;;6211128;23;20016;-78
2023/05/16 17:04:44;;;;;;;5.20;2.83;;;12.40;99.90;;;;;;6213180;23;20457;-78
2023/05/16 17:07:09;;;;;;;7.03;2.95;;;12.30;99.90;;;;;;6215006;23;20009;-78
2023/05/16 17:09:35;;;;;;;5.22;2.90;;;12.40;99.90;;;;;;6215426;23;20087;-77
2023/05/16 17:12:06;;;;;;;7.90;2.25;;;12.40;99.90;;;;;;6212673;23;20074;-77
2023/05/16 17:14:33;;;;;;;5.97;2.00;;;12.40;99.90;;;;;;6216663;23;20016;-78
2023/05/16 17:16:58;;;;;;;3.53;2.00;;;12.40;99.90;;;;;;6220821;23;20495;-78
2023/05/16 17:19:24;;;;;;;5.28;1.65;;;12.40;99.90;;;;;;6219296;23;20013;-78
2023/05/16 17:21:50;;;;;;;5.28;1.67;;;12.40;99.90;;;;;;6218211;23;20048;-78
2023/05/16 17:24:16;;;;;;;3.95;1.70;;;12.30;99.90;;;;;;6213955;23;20052;-78
2023/05/16 17:26:42;;;;;;;3.78;1.50;;;12.30;99.90;;;;;;6213314;23;20023;-78
2023/05/16 17:29:07;;;;;;;2.80;1.20;;;12.30;99.90;;;;;;6215267;23;20013;-78
2023/05/16 17:31:36;;;;;;;4.72;1.40;;;12.30;99.90;;;;;;6215723;23;20019;-78
2023/05/16 17:34:02;;;;;;;4.00;1.42;;;12.30;99.90;;;;;;6214389;23;20016;-78
2023/05/16 17:36:28;;;;;;;4.40;1.60;;;12.30;99.90;;;;;;6213566;23;20035;-78
2023/05/16 17:38:53;;;;;;;5.95;1.83;;;12.40;99.90;;;;;;6188589;23;20375;-78
2023/05/16 17:41:19;;;;;;;5.22;1.65;;;12.30;99.90;;;;;;6215035;23;20013;-78
2023/05/16 17:43:46;;;;;;;5.30;1.75;;;12.30;99.90;;;;;;6214827;23;20017;-77
2023/05/16 17:46:12;;;;;;;5.80;1.92;;;12.30;99.90;;;;;;6214393;23;20024;-77
2023/05/16 17:48:38;;;;;;;4.97;1.55;;;12.30;99.90;;;;;;6214123;23;20017;-76
2023/05/16 17:51:04;;;;;;;3.85;1.70;;;12.30;99.90;;;;;;6214178;23;20016;-77
2023/05/16 17:53:29;;;;;;;3.17;1.75;;;12.30;99.90;;;;;;6215518;23;20071;-77
2023/05/16 17:55:55;;;;;;;6.45;2.10;;;12.30;99.90;;;;;;6214142;23;20381;-78
2023/05/16 17:58:21;;;;;;;4.80;1.80;;;12.30;99.90;;;;;;6213133;23;20221;-78
2023/05/16 18:00:47;;;;;;;3.78;2.13;;;12.30;99.90;;;;;;6215783;23;20042;-78
2023/05/16 18:03:13;;;;;;;4.85;1.83;;;12.30;99.90;;;;;;6213823;23;20056;-78
2023/05/16 18:05:39;;;;;;;7.18;2.13;;;12.30;99.90;;;;;;6217553;23;20021;-79
2023/05/16 18:08:04;;;;;;;6.75;2.15;;;12.20;99.90;;;;;;6217176;23;20019;-78
2023/05/16 18:10:31;;;;;;;3.97;1.77;;;12.30;99.90;;;;;;6218419;23;20314;-78
2023/05/16 18:12:58;;;;;;;7.13;1.80;;;12.30;99.90;;;;;;6219100;23;20013;-78
2023/05/16 18:15:23;;;;;;;5.72;1.70;;;12.30;99.90;;;;;;6215020;23;20017;-78
2023/05/16 18:17:49;;;;;;;8.07;2.10;;;12.30;99.90;;;;;;6217084;23;20119;-78
2023/05/16 18:20:15;;;;;;;6.68;1.73;;;12.20;99.90;;;;;;6215634;23;20067;-78
2023/05/16 18:22:41;;;;;;;4.60;1.70;;;12.20;99.90;;;;;;6188788;23;20016;-78
2023/05/16 18:25:08;;;;;;;5.03;1.50;;;12.20;99.90;;;;;;6217648;23;20027;-78
2023/05/16 18:27:37;;;;;;;6.35;1.60;;;12.20;99.90;;;;;;6217590;23;20315;-78
2023/05/16 18:30:04;;;;;;;6.57;1.48;;;12.20;99.90;;;;;;6213806;23;20016;-78
2023/05/16 18:32:30;;;;;;;6.72;1.75;;;12.10;99.90;;;;;;6215860;23;20056;-78
2023/05/16 18:34:56;;;;;;;3.80;1.63;;;12.10;99.90;;;;;;6212087;23;20595;-78
2023/05/16 18:37:22;;;;;;;4.50;1.65;;;12.10;99.90;;;;;;6212650;23;20025;-78
2023/05/16 18:39:48;;;;;;;7.65;1.55;;;12.00;99.90;;;;;;6213542;23;20016;-78
2023/05/16 18:42:17;;;;;;;2.92;1.02;;;12.00;99.90;;;;;;6213218;23;20074;-78
2023/05/16 18:44:44;;;;;;;2.80;1.33;;;12.00;99.90;;;;;;6214032;23;20024;-78
2023/05/16 18:47:10;;;;;;;3.95;1.17;;;12.00;99.90;;;;;;6216025;23;20040;-77
2023/05/16 18:49:38;;;;;;;3.10;1.35;;;12.00;99.90;;;;;;6213148;23;20051;-78
2023/05/16 18:52:09;;;;;;;2.08;1.10;;;11.90;99.90;;;;;;6212883;23;20017;-78
2023/05/16 18:54:36;;;;;;;5.55;1.30;;;11.80;99.90;;;;;;6213256;23;20024;-77
2023/05/16 18:57:02;;;;;;;3.00;1.20;;;11.70;99.90;;;;;;6216399;23;20020;-77
2023/05/16 18:59:30;;;;;;;5.50;1.17;;;11.60;99.90;;;;;;6217032;23;20017;-78
2023/05/16 19:01:55;;;;;;;2.95;1.20;;;11.60;99.90;;;;;;6189640;23;20009;-78
2023/05/16 19:04:22;;;;;;;4.18;1.20;;;11.60;99.90;;;;;;6216777;23;20472;-78
2023/05/16 19:06:47;;;;;;;3.03;1.00;;;11.60;99.90;;;;;;6216612;23;20020;-78
2023/05/16 19:09:13;;;;;;;3.90;1.17;;;11.60;99.90;;;;;;6190124;23;20012;-78
2023/05/16 19:11:39;;;;;;;5.22;1.40;;;11.60;99.90;;;;;;6215828;23;20017;-78
2023/05/16 19:14:05;;;;;;;5.78;1.20;;;11.50;99.90;;;;;;6217513;23;20059;-78
2023/05/16 19:16:31;;;;;;;3.60;1.20;;;11.50;99.90;;;;;;6216399;23;20321;-78
2023/05/16 19:18:57;;;;;;;4.90;1.63;;;11.50;99.90;;;;;;6216656;23;20012;-78
2023/05/16 19:21:23;;;;;;;3.45;1.40;;;11.50;99.90;;;;;;6215608;23;20035;-78
2023/05/16 19:23:48;;;;;;;4.82;1.60;;;11.50;99.90;;;;;;6215755;23;20012;-78
2023/05/16 19:26:14;;;;;;;4.30;1.63;;;11.50;99.90;;;;;;6216875;23;20017;-78
2023/05/16 19:28:40;;;;;;;3.08;1.60;;;11.50;99.90;;;;;;6216657;23;20025;-78
2023/05/16 19:31:06;;;;;;;6.78;1.70;;;11.50;99.90;;;;;;6215848;23;20038;-78
2023/05/16 19:33:32;;;;;;;3.95;1.58;;;11.50;99.90;;;;;;6187769;23;20052;-77
2023/05/16 19:35:57;;;;;;;4.25;1.90;;;11.50;99.90;;;;;;6217233;23;20017;-77
2023/05/16 19:38:24;;;;;;;9.32;2.45;;;11.40;99.90;;;;;;6221012;23;20024;-77
2023/05/16 19:40:51;;;;;;;6.00;2.00;;;11.40;99.90;;;;;;6226587;23;20079;-79
2023/05/16 19:43:17;;;;;;;4.70;2.15;;;11.40;99.90;;;;;;6213811;23;20028;-78
2023/05/16 19:45:43;;;;;;;6.28;2.50;;;11.40;99.90;;;;;;6213447;23;20016;-78
2023/05/16 19:48:09;;;;;;;10.05;3.42;;;11.40;99.90;;;;;;6214416;23;20031;-78
2023/05/16 19:50:35;;;;;;;9.20;2.63;;;11.30;99.90;;;;;;6216712;23;20051;-78
2023/05/16 19:53:01;;;;;;;7.28;2.58;;;11.30;99.90;;;;;;6214242;23;20017;-78
2023/05/16 19:55:27;;;;;;;9.32;2.92;;;11.30;99.90;;;;;;6216172;23;20012;-78
2023/05/16 19:57:53;;;;;;;7.40;3.03;;;11.30;99.90;;;;;;6215807;23;20084;-78
2023/05/16 20:00:19;;;;;;;9.00;2.85;;;11.30;99.90;;;;;;6215841;23;20008;-78
2023/05/16 20:02:46;;;;;;;8.43;2.90;;;11.30;99.90;;;;;;6215440;23;20074;-79
2023/05/16 20:05:13;;;;;;;8.90;3.40;;;11.30;99.90;;;;;;6218023;23;20492;-79
2023/05/16 20:07:39;;;;;;;9.85;3.15;;;11.30;99.90;;;;;;6219555;23;20036;-79
2023/05/16 20:10:07;;;;;;;6.75;3.00;;;11.30;99.90;;;;;;6218718;23;20016;-80
2023/05/16 20:12:32;;;;;;;7.70;3.25;;;11.30;99.90;;;;;;6221207;23;20016;-80
2023/05/16 20:14:58;;;;;;;10.55;3.25;;;11.30;99.90;;;;;;6221379;23;20035;-79
2023/05/16 20:17:24;;;;;;;8.52;2.67;;;11.30;99.90;;;;;;6218559;23;20095;-79
2023/05/16 20:19:49;;;;;;;6.95;2.97;;;11.20;99.90;;;;;;6219084;23;20374;-79
2023/05/16 20:22:15;;;;;;;9.88;2.95;;;11.20;99.90;;;;;;6193666;23;20703;-79
2023/05/16 20:24:41;;;;;;;10.25;2.97;;;11.20;99.90;;;;;;6220043;23;20227;-79
2023/05/16 20:27:07;;;;;;;10.45;3.85;;;11.10;99.90;;;;;;6218614;23;20341;-79
2023/05/16 20:29:32;;;;;;;8.00;3.10;;;11.10;99.90;;;;;;6220492;23;20047;-79
2023/05/16 20:31:59;;;;;;;10.55;3.30;;;11.00;99.90;;;;;;6219282;23;20024;-79
2023/05/16 20:34:24;;;;;;;6.85;2.65;;;11.00;99.90;;;;;;6218034;23;20465;-80
2023/05/16 20:36:50;;;;;;;8.77;2.95;;;10.90;99.90;;;;;;6192462;23;20026;-79
2023/05/16 20:39:16;;;;;;;10.93;3.60;;;10.80;99.90;;;;;;6219797;23;20013;-79
2023/05/16 20:41:41;;;;;;;8.52;3.38;;;10.80;99.90;;;;;;6219171;23;20019;-79
2023/05/16 20:44:07;;;;;;;8.60;3.28;;;10.70;99.90;;;;;;6219989;23;20036;-79
2023/05/16 20:46:33;;;;;;;8.50;2.83;;;10.60;99.90;;;;;;6216883;23;20082;-79
2023/05/16 20:48:59;;;;;;;9.38;3.08;;;10.50;99.90;;;;;;6219566;23;20017;-79
2023/05/16 20:51:24;;;;;;;10.20;3.42;;;10.50;99.90;;;;;;6222753;23;20044;-79
2023/05/16 20:53:50;;;;;;;9.15;3.50;;;10.40;99.90;;;;;;6216557;23;20147;-79
2023/05/16 20:56:16;;;;;;;14.70;4.18;;;10.40;99.90;;;;;;6215221;23;20122;-79
2023/05/16 20:58:42;;;;;;;10.65;3.47;;;10.30;99.90;;;;;;6218383;23;20020;-79
2023/05/16 21:01:08;;;;;;;11.02;2.97;;;10.20;99.90;;;;;;6216033;23;20031;-79
2023/05/16 21:03:33;;;;;;;8.98;3.22;;;10.20;99.90;;;;;;6190315;23;20021;-79
2023/05/16 21:05:59;;;;;;;12.32;3.90;;;10.10;99.90;;;;;;6189662;23;20477;-80
2023/05/16 21:08:25;;;;;;;13.02;3.25;;;10.10;99.90;;;;;;6217436;23;20009;-79
2023/05/16 21:10:51;;;;;;;11.43;3.17;;;10.00;99.90;;;;;;6215182;23;20286;-79
2023/05/16 21:13:16;;;;;;;8.65;3.30;;;9.90;99.90;;;;;;6216231;23;20017;-78
2023/05/16 21:15:42;;;;;;;12.80;4.07;;;9.90;99.90;;;;;;6214361;23;20365;-78
2023/05/16 21:18:08;;;;;;;13.73;4.22;;;9.90;99.90;;;;;;6215097;23;20063;-79
2023/05/16 21:20:33;;;;;;;11.75;3.83;;;9.80;99.90;;;;;;6216613;23;20384;-77
2023/05/16 21:22:59;;;;;;;15.13;3.90;;;9.80;99.90;;;;;;6213852;23;20314;-78
2023/05/16 21:25:24;;;;;;;16.77;4.10;;;9.80;99.90;;;;;;6187261;23;20101;-78
2023/05/16 21:27:50;;;;;;;11.00;3.47;;;9.70;99.90;;;;;;6208542;23;20524;-78
2023/05/16 21:30:16;;;;;;;12.27;3.75;;;9.70;99.90;;;;;;6210176;23;20055;-78
2023/05/16 21:32:41;;;;;;;12.73;3.75;;;9.70;99.90;;;;;;6209886;23;20330;-78
2023/05/16 21:35:07;;;;;;;11.57;3.80;;;9.70;99.90;;;;;;6210680;23;20437;-78
2023/05/16 21:37:33;;;;;;;12.88;3.97;;;9.60;99.90;;;;;;6209823;23;20463;-78
2023/05/16 21:39:59;;;;;;;12.13;3.80;;;9.60;99.90;;;;;;6214601;23;20048;-78
2023/05/16 21:42:24;;;;;;;12.13;4.13;;;9.50;99.90;;;;;;6214221;23;20096;-78
2023/05/16 21:44:50;;;;;;;16.45;4.03;;;9.50;99.90;;;;;;6215289;23;20031;-78
2023/05/16 21:47:16;;;;;;;15.55;4.07;;;9.40;99.90;;;;;;6213082;23;20365;-78
2023/05/16 21:49:41;;;;;;;13.48;3.80;;;9.40;99.90;;;;;;6186747;23;20066;-78
2023/05/16 21:52:07;;;;;;;11.77;3.75;;;9.40;99.90;;;;;;6184436;23;20017;-78
2023/05/16 21:54:33;;;;;;;15.95;4.30;;;9.40;99.90;;;;;;6213346;23;20012;-78
2023/05/16 21:56:58;;;;;;;14.55;4.35;;;9.40;99.90;;;;;;6216338;23;20040;-78
2023/05/16 21:59:24;;;;;;;11.93;4.10;;;9.30;99.90;;;;;;6213671;23;20059;-78
2023/05/16 22:01:49;;;;;;;16.02;4.38;;;9.30;99.90;;;;;;6218069;23;20009;-78
2023/05/16 22:04:15;;;;;;;11.60;4.72;;;9.30;99.90;;;;;;6216620;23;20453;-78
2023/05/16 22:06:41;;;;;;;15.95;5.25;;;9.20;99.90;;;;;;6212844;23;20326;-78
2023/05/16 22:09:06;;;;;;;12.40;4.13;;;9.20;99.90;;;;;;6213191;23;20020;-78
2023/05/16 22:11:32;;;;;;;16.63;4.45;;;9.10;99.90;;;;;;6213301;23;20048;-78
2023/05/16 22:13:58;;;;;;;18.00;4.53;;;9.10;99.90;;;;;;6211588;23;20127;-78
2023/05/16 22:16:23;;;;;;;16.10;4.43;;;9.10;99.90;;;;;;6214190;23;20024;-78
2023/05/16 22:18:49;;;;;;;14.10;4.43;;;9.00;99.90;;;;;;6212715;23;20467;-76
2023/05/16 22:21:15;;;;;;;21.38;5.00;;;9.00;99.90;;;;;;6216199;23;20027;-75
2023/05/16 22:23:41;;;;;;;16.45;4.55;;;8.90;99.90;;;;;;6217119;23;20023;-78
2023/05/16 22:26:06;;;;;;;13.13;4.30;;;8.90;99.90;;;;;;6217931;23;20015;-77
2023/05/16 22:28:32;;;;;;;13.38;4.53;;;8.90;99.90;;;;;;6195900;23;20032;-78
2023/05/16 22:30:57;;;;;;;17.13;4.38;;;8.90;99.90;;;;;;6215752;23;20505;-75
2023/05/16 22:36:01;;;;;;;16.08;5.13;;;8.90;99.90;;;;;;6200379;22;20432;-57
2023/05/16 22:38:27;;;;;;;16.20;4.75;;;9.00;99.90;;;;;;6213776;23;20024;-58
2023/05/16 22:40:52;;;;;;;18.48;4.55;;;9.10;99.90;;;;;;6212131;23;20050;-58
2023/05/16 22:43:18;;;;;;;20.25;5.20;;;9.20;99.90;;;;;;6213142;23;20017;-58
2023/05/16 22:45:44;;;;;;;18.83;5.65;;;9.20;99.90;;;;;;6214622;23;20056;-58
2023/05/16 22:48:09;;;;;;;17.70;4.88;;;9.30;99.90;;;;;;6214927;23;20016;-57
2023/05/16 22:50:35;;;;;;;15.38;4.75;;;9.30;99.90;;;;;;6212925;23;20375;-58
2023/05/16 22:53:01;;;;;;;11.27;4.35;;;9.30;99.90;;;;;;6215164;23;20092;-57
2023/05/16 22:55:26;;;;;;;14.00;4.80;;;9.30;99.90;;;;;;6216156;23;20059;-57
2023/05/16 22:57:55;;;;;;;17.63;4.78;;;9.20;99.90;;;;;;6216880;23;20331;-57
2023/05/16 23:00:22;;;;;;;13.13;5.00;;;9.10;99.90;;;;;;6216694;23;20027;-58
2023/05/16 23:02:48;;;;;;;16.65;5.38;;;9.00;99.90;;;;;;6216708;23;20083;-57
2023/05/16 23:05:14;;;;;;;14.85;5.05;;;9.00;99.90;;;;;;6214654;23;20044;-58
2023/05/16 23:07:39;;;;;;;17.45;5.13;;;8.90;99.90;;;;;;6213945;23;20385;-57
2023/05/16 23:10:06;;;;;;;14.73;4.97;;;8.90;99.90;;;;;;6214021;23;20174;-57
2023/05/16 23:12:32;;;;;;;18.63;5.72;;;8.90;99.90;;;;;;6213361;23;20343;-57
2023/05/16 23:14:57;;;;;;;16.33;4.97;;;8.80;99.90;;;;;;6214000;23;20027;-57
2023/05/16 23:17:23;;;;;;;18.15;4.97;;;8.80;99.90;;;;;;6215946;23;20026;-55
2023/05/16 23:19:48;;;;;;;18.17;5.10;;;8.70;99.90;;;;;;6214259;23;20048;-56
2023/05/16 23:22:14;;;;;;;14.45;5.00;;;8.70;99.90;;;;;;6214628;23;20100;-57
2023/05/16 23:24:40;;;;;;;16.33;5.50;;;8.70;99.90;;;;;;6215999;23;20132;-57
2023/05/16 23:27:05;;;;;;;19.25;4.93;;;8.80;99.90;;;;;;6216751;23;20019;-58
2023/05/16 23:29:31;;;;;;;15.82;5.40;;;8.80;99.90;;;;;;6216489;23;20084;-57
2023/05/16 23:31:56;;;;;;;23.25;6.18;;;8.80;99.90;;;;;;6216549;23;20336;-56
2023/05/16 23:34:22;;;;;;;16.30;5.00;;;8.80;99.90;;;;;;6216030;23;20020;-58
2023/05/16 23:36:47;;;;;;;21.98;5.60;;;8.80;99.90;;;;;;6216451;23;20009;-55
2023/05/16 23:39:13;;;;;;;21.92;5.35;;;8.90;99.90;;;;;;6216272;23;20020;-54
2023/05/16 23:41:39;;;;;;;15.82;5.38;;;8.90;99.90;;;;;;6216301;23;20016;-57
2023/05/16 23:44:04;;;;;;;13.40;4.95;;;9.00;99.90;;;;;;6216296;23;20016;-57
2023/05/16 23:46:31;;;;;;;13.45;5.68;;;9.00;99.90;;;;;;6215904;23;20347;-58
2023/05/16 23:48:56;;;;;;;12.00;5.03;;;9.00;99.90;;;;;;6214032;23;20017;-58
2023/05/16 23:51:22;;;;;;;17.65;5.30;;;9.10;99.90;;;;;;6212095;23;20028;-57
2023/05/16 23:53:47;;;;;;;16.98;5.85;;;9.10;99.90;;;;;;6212922;23;20017;-58
2023/05/16 23:56:13;;;;;;;15.88;5.10;;;9.20;99.90;;;;;;6215143;23;20379;-56
2023/05/16 23:58:39;;;;;;;12.70;4.78;;;9.20;99.90;;;;;;6216457;23;20023;-58
